createdAt,value
2022-12-04T00:01:22.357Z,71.87
2022-12-04T00:03:53.396Z,62.73
2022-12-04T00:06:21.374Z,62.23
2022-12-04T00:08:49.177Z,67.60
2022-12-04T00:11:23.796Z,61.10
2022-12-04T00:13:51.172Z,67.90
2022-12-04T00:16:21.961Z,62.63
2022-12-04T00:18:48.927Z,55.67
2022-12-04T00:21:17.371Z,65.07
2022-12-04T00:23:44.850Z,59.13
2022-12-04T00:26:22.616Z,64.53
2022-12-04T00:28:50.066Z,59.77
2022-12-04T00:31:21.809Z,56.10
2022-12-04T00:33:49.074Z,59.83
2022-12-04T00:36:20.405Z,60.87
2022-12-04T00:38:48.275Z,62.17
2022-12-04T00:41:22.134Z,61.13
2022-12-04T00:43:49.159Z,66.17
2022-12-04T00:46:16.477Z,60.53
2022-12-04T00:48:43.899Z,58.33
2022-12-04T00:51:17.723Z,55.63
2022-12-04T00:53:45.344Z,61.27
2022-12-04T00:56:18.748Z,57.50
2022-12-04T00:58:46.795Z,51.70
2022-12-04T01:01:19.927Z,58.63
2022-12-04T01:03:47.862Z,59.43
2022-12-04T01:06:25.415Z,50.60
2022-12-04T01:08:54.456Z,60.40
2022-12-04T01:11:23.029Z,51.67
2022-12-04T01:13:50.672Z,56.70
2022-12-04T01:16:34.007Z,62.87
2022-12-04T01:19:01.814Z,62.20
2022-12-04T01:21:28.749Z,53.77
2022-12-04T01:23:55.616Z,60.87
2022-12-04T01:26:22.535Z,61.47
2022-12-04T01:28:49.475Z,56.70
2022-12-04T01:31:20.022Z,57.47
2022-12-04T01:33:48.168Z,60.93
2022-12-04T01:36:19.629Z,49.13
2022-12-04T01:38:46.743Z,58.50
2022-12-04T01:41:17.302Z,42.67
2022-12-04T01:43:44.439Z,54.40
2022-12-04T01:46:12.112Z,49.97
2022-12-04T01:48:49.498Z,52.30
2022-12-04T01:51:31.142Z,49.90
2022-12-04T01:54:09.845Z,53.07
2022-12-04T01:56:46.060Z,54.50
2022-12-04T01:59:17.875Z,57.03
2022-12-04T02:01:55.690Z,50.40
2022-12-04T02:04:22.928Z,48.00
2022-12-04T02:06:49.899Z,49.37
2022-12-04T02:09:21.632Z,50.70
2022-12-04T02:12:21.300Z,51.80
2022-12-04T02:15:04.169Z,55.80
2022-12-04T02:17:44.888Z,45.17
2022-12-04T02:20:33.471Z,47.23
2022-12-04T02:23:18.443Z,41.37
2022-12-04T02:26:17.142Z,46.93
2022-12-04T02:28:57.247Z,53.57
2022-12-04T02:31:34.392Z,51.20
2022-12-04T02:34:20.580Z,42.87
2022-12-04T02:37:03.884Z,47.70
2022-12-04T02:39:30.639Z,49.87
2022-12-04T02:42:13.658Z,45.50
2022-12-04T02:44:56.345Z,48.07
2022-12-04T02:47:25.549Z,53.77
2022-12-04T02:50:04.684Z,54.53
2022-12-04T02:52:48.119Z,53.77
2022-12-04T02:55:29.669Z,48.17
2022-12-04T02:58:04.897Z,64.33
2022-12-04T03:00:32.694Z,46.80
2022-12-04T03:03:06.008Z,56.10
2022-12-04T03:05:58.183Z,57.27
2022-12-04T03:08:48.346Z,44.70
2022-12-04T03:11:15.257Z,49.60
2022-12-04T03:14:00.372Z,50.37
2022-12-04T03:16:34.347Z,51.37
2022-12-04T03:19:12.633Z,57.73
2022-12-04T03:21:47.054Z,56.63
2022-12-04T03:24:24.041Z,55.77
2022-12-04T03:27:09.707Z,49.17
2022-12-04T03:29:47.073Z,59.53
2022-12-04T03:32:29.727Z,57.53
2022-12-04T03:35:10.580Z,53.33
2022-12-04T03:38:12.725Z,50.90
2022-12-04T03:40:48.638Z,56.27
2022-12-04T03:43:25.984Z,50.70
2022-12-04T03:46:00.077Z,62.30
2022-12-04T03:48:41.527Z,49.93
2022-12-04T03:51:14.204Z,53.57
2022-12-04T03:53:55.256Z,42.07
2022-12-04T03:56:26.998Z,49.07
2022-12-04T03:58:59.956Z,48.73
2022-12-04T04:01:39.341Z,46.90
2022-12-04T04:04:12.711Z,41.30
2022-12-04T04:06:44.809Z,58.10
2022-12-04T04:09:19.478Z,53.93
2022-12-04T04:11:52.744Z,50.00
2022-12-04T04:14:46.725Z,41.37
2022-12-04T04:17:38.773Z,51.53
2022-12-04T04:20:42.307Z,53.87
2022-12-04T04:23:30.891Z,54.10
2022-12-04T04:26:02.395Z,54.90
2022-12-04T04:28:30.819Z,48.33
2022-12-04T04:31:18.184Z,50.93
2022-12-04T04:34:05.954Z,48.80
2022-12-04T04:37:04.515Z,51.00
2022-12-04T04:39:35.601Z,44.43
2022-12-04T04:42:30.051Z,49.60
2022-12-04T04:45:18.251Z,58.03
2022-12-04T04:48:05.918Z,49.23
2022-12-04T04:50:34.290Z,47.70
2022-12-04T04:53:08.584Z,48.57
2022-12-04T04:55:36.969Z,50.10
2022-12-04T04:58:17.583Z,52.23
2022-12-04T05:00:55.850Z,53.57
2022-12-04T05:03:22.895Z,50.53
2022-12-04T05:05:49.859Z,53.73
2022-12-04T05:08:16.792Z,49.13
2022-12-04T05:10:43.778Z,42.20
2022-12-04T05:13:13.125Z,41.67
2022-12-04T05:15:40.139Z,47.23
2022-12-04T05:18:07.304Z,57.60
2022-12-04T05:20:34.293Z,45.20
2022-12-04T05:23:01.232Z,49.43
2022-12-04T05:25:28.230Z,43.50
2022-12-04T05:27:55.174Z,45.93
2022-12-04T05:30:22.069Z,41.23
2022-12-04T05:32:49.042Z,43.30
2022-12-04T05:35:15.961Z,49.13
2022-12-04T05:37:42.931Z,46.57
2022-12-04T05:40:10.356Z,35.17
2022-12-04T05:42:37.299Z,45.47
2022-12-04T05:45:04.591Z,54.27
2022-12-04T05:47:31.552Z,49.20
2022-12-04T05:49:58.617Z,45.77
2022-12-04T05:52:25.641Z,40.03
2022-12-04T05:54:52.557Z,47.90
2022-12-04T05:57:19.426Z,47.80
2022-12-04T05:59:46.282Z,39.50
2022-12-04T06:02:13.194Z,43.57
2022-12-04T06:04:40.157Z,40.30
2022-12-04T06:07:07.086Z,46.13
2022-12-04T06:09:34.073Z,43.77
2022-12-04T06:12:00.951Z,45.00
2022-12-04T06:14:27.881Z,42.60
2022-12-04T06:16:54.850Z,46.20
2022-12-04T06:19:23.224Z,41.30
2022-12-04T06:21:53.275Z,45.07
2022-12-04T06:24:24.973Z,46.97
2022-12-04T06:27:26.239Z,44.00
2022-12-04T06:29:44.268Z,45.27
2022-12-04T06:32:13.948Z,41.63
2022-12-04T06:34:43.353Z,41.23
2022-12-04T06:37:10.225Z,50.77
2022-12-04T06:39:37.178Z,46.63
2022-12-04T06:42:04.115Z,48.03
2022-12-04T06:44:31.036Z,50.50
2022-12-04T06:47:00.957Z,60.37
2022-12-04T06:49:28.228Z,64.40
2022-12-04T06:51:55.174Z,58.27
2022-12-04T06:54:22.065Z,51.97
2022-12-04T06:56:49.968Z,48.70
2022-12-04T06:59:16.849Z,47.67
2022-12-04T07:01:43.738Z,54.57
2022-12-04T07:04:10.680Z,52.07
2022-12-04T07:06:39.232Z,48.93
2022-12-04T07:09:14.179Z,69.90
2022-12-04T07:11:42.954Z,70.87
2022-12-04T07:14:10.960Z,57.37
2022-12-04T07:16:41.356Z,44.87
2022-12-04T07:19:11.321Z,61.33
2022-12-04T07:21:38.591Z,50.57
2022-12-04T07:24:05.912Z,41.70
2022-12-04T07:26:33.153Z,51.43
2022-12-04T07:29:00.082Z,62.77
2022-12-04T07:31:28.997Z,62.23
2022-12-04T07:33:57.542Z,55.47
2022-12-04T07:36:25.636Z,52.60
2022-12-04T07:38:52.776Z,53.30
2022-12-04T07:41:20.390Z,52.33
2022-12-04T07:43:48.154Z,46.13
2022-12-04T07:46:22.216Z,49.03
2022-12-04T07:48:49.266Z,39.07
2022-12-04T07:51:20.701Z,51.43
2022-12-04T07:53:49.045Z,47.37
2022-12-04T07:56:16.954Z,57.97
2022-12-04T07:58:44.404Z,47.80
2022-12-04T08:01:21.484Z,66.37
2022-12-04T08:03:53.368Z,62.90
2022-12-04T08:06:22.540Z,52.23
2022-12-04T08:08:50.087Z,66.97
2022-12-04T08:11:22.289Z,56.90
2022-12-04T08:13:55.711Z,51.10
2022-12-04T08:16:22.872Z,51.30
2022-12-04T08:18:50.045Z,56.27
2022-12-04T08:21:21.333Z,46.07
2022-12-04T08:23:51.032Z,49.83
2022-12-04T08:26:20.255Z,53.50
2022-12-04T08:28:47.581Z,54.53
2022-12-04T08:31:19.098Z,59.10
2022-12-04T08:33:47.822Z,49.80
2022-12-04T08:36:19.333Z,62.57
2022-12-04T08:38:47.484Z,64.23
2022-12-04T08:41:18.340Z,68.87
2022-12-04T08:43:45.450Z,51.93
2022-12-04T08:46:16.769Z,58.77
2022-12-04T08:48:44.580Z,51.97
2022-12-04T08:51:18.634Z,48.53
2022-12-04T08:53:46.255Z,46.20
2022-12-04T08:56:13.794Z,65.50
2022-12-04T08:58:40.720Z,50.20
2022-12-04T09:01:11.957Z,53.83
2022-12-04T09:03:39.447Z,45.53
2022-12-04T09:06:11.441Z,46.67
2022-12-04T09:08:38.775Z,44.40
2022-12-04T09:11:23.044Z,42.73
2022-12-04T09:14:18.021Z,49.40
2022-12-04T09:17:04.974Z,50.20
2022-12-04T09:19:54.574Z,48.57
2022-12-04T09:23:02.994Z,52.23
2022-12-04T09:25:44.076Z,45.60
2022-12-04T09:28:31.005Z,47.57
2022-12-04T09:31:19.085Z,50.43
2022-12-04T09:34:00.774Z,41.43
2022-12-04T09:36:47.042Z,48.33
2022-12-04T09:39:34.117Z,46.60
2022-12-04T09:42:45.023Z,44.90
2022-12-04T09:45:33.022Z,45.53
2022-12-04T09:48:17.078Z,47.90
2022-12-04T09:51:05.084Z,45.37
2022-12-04T09:54:03.083Z,42.00
2022-12-04T09:57:16.093Z,43.03
2022-12-04T09:59:58.340Z,45.17
2022-12-04T10:03:04.087Z,44.77
2022-12-04T10:06:28.048Z,49.03
2022-12-04T10:09:40.108Z,43.03
2022-12-04T10:12:53.042Z,42.33
2022-12-04T10:16:06.145Z,41.77
2022-12-04T10:19:22.091Z,40.53
2022-12-04T10:22:28.086Z,45.47
2022-12-04T10:25:19.099Z,45.13
2022-12-04T10:28:18.137Z,41.73
2022-12-04T10:31:02.144Z,35.50
2022-12-04T10:33:59.119Z,40.93
2022-12-04T10:36:41.240Z,43.67
2022-12-04T10:39:44.120Z,38.37
2022-12-04T10:42:57.275Z,46.17
2022-12-04T10:45:44.103Z,47.57
2022-12-04T10:48:46.151Z,39.97
2022-12-04T10:51:33.170Z,39.93
2022-12-04T10:54:43.105Z,38.87
2022-12-04T10:57:54.117Z,41.70
2022-12-04T11:00:42.155Z,34.23
2022-12-04T11:03:35.385Z,35.53
2022-12-04T11:06:22.107Z,39.30
2022-12-04T11:09:10.154Z,33.27
2022-12-04T11:11:59.152Z,36.40
2022-12-04T11:14:53.113Z,40.27
2022-12-04T11:17:40.312Z,38.10
2022-12-04T11:20:40.732Z,36.03
2022-12-04T11:23:30.148Z,34.67
2022-12-04T11:26:17.154Z,39.77
2022-12-04T11:29:01.511Z,33.17
2022-12-04T11:31:48.192Z,35.57
2022-12-04T11:34:45.176Z,37.50
2022-12-04T11:37:45.213Z,35.73
2022-12-04T11:40:33.162Z,35.07
2022-12-04T11:43:22.251Z,34.53
2022-12-04T11:46:16.182Z,37.97
2022-12-04T11:49:04.228Z,37.57
2022-12-04T11:52:35.267Z,37.90
2022-12-04T11:56:00.206Z,36.67
2022-12-04T11:59:19.303Z,58.57
2022-12-04T12:02:34.302Z,37.87
2022-12-04T12:06:03.216Z,51.97
2022-12-04T12:09:10.270Z,44.00
2022-12-04T12:12:17.198Z,40.33
2022-12-04T12:15:42.298Z,47.70
2022-12-04T12:19:01.372Z,39.77
2022-12-04T12:22:12.357Z,39.20
2022-12-04T12:25:17.230Z,38.83
2022-12-04T12:28:21.227Z,35.10
2022-12-04T12:31:28.307Z,39.07
2022-12-04T12:34:43.320Z,42.97
2022-12-04T12:37:51.256Z,33.97
2022-12-04T12:40:51.324Z,39.53
2022-12-04T12:43:40.368Z,38.57
2022-12-04T12:46:51.464Z,38.90
2022-12-04T12:49:51.256Z,37.00
2022-12-04T12:53:07.303Z,39.97
2022-12-04T12:56:09.709Z,36.37
2022-12-04T12:59:03.319Z,40.40
2022-12-04T13:02:15.335Z,30.33
2022-12-04T13:05:07.334Z,47.20
2022-12-04T13:08:24.320Z,36.87
2022-12-04T13:11:21.304Z,34.20
2022-12-04T13:14:11.292Z,41.27
2022-12-04T13:16:58.512Z,39.60
2022-12-04T13:20:06.845Z,37.53
2022-12-04T13:23:22.293Z,38.87
2022-12-04T13:26:50.298Z,36.27
2022-12-04T13:30:11.474Z,34.37
2022-12-04T13:33:23.340Z,38.00
2022-12-04T13:36:28.312Z,40.40
2022-12-04T13:39:41.342Z,37.23
2022-12-04T13:42:35.408Z,40.43
2022-12-04T13:45:39.383Z,36.90
2022-12-04T13:48:19.366Z,32.43
2022-12-04T13:51:28.368Z,34.40
2022-12-04T13:54:19.406Z,40.40
2022-12-04T13:57:21.332Z,45.27
2022-12-04T14:00:32.410Z,34.83
2022-12-04T14:03:37.345Z,37.77
2022-12-04T14:06:33.397Z,37.07
2022-12-04T14:09:48.398Z,37.63
2022-12-04T14:12:38.865Z,43.13
2022-12-04T14:15:39.370Z,37.90
2022-12-04T14:18:37.413Z,76.77
2022-12-04T14:21:17.532Z,35.07
2022-12-04T14:24:04.391Z,36.13
2022-12-04T14:27:11.314Z,38.87
2022-12-04T14:30:03.409Z,39.30
2022-12-04T14:32:43.430Z,35.80
2022-12-04T14:35:33.396Z,40.37
2022-12-04T14:38:14.428Z,40.60
2022-12-04T14:41:04.399Z,43.83
2022-12-04T14:43:51.503Z,37.00
2022-12-04T14:46:47.401Z,40.03
2022-12-04T14:49:49.488Z,37.47
2022-12-04T14:52:54.417Z,37.60
2022-12-04T14:56:07.611Z,47.07
2022-12-04T14:58:54.444Z,40.37
2022-12-04T15:01:44.500Z,35.33
2022-12-04T15:04:41.498Z,34.63
2022-12-04T15:07:46.445Z,34.97
2022-12-04T15:10:56.128Z,41.73
2022-12-04T15:13:52.436Z,43.83
2022-12-04T15:16:39.440Z,38.80
2022-12-04T15:19:24.481Z,35.63
2022-12-04T15:22:34.494Z,42.60
2022-12-04T15:25:34.443Z,40.27
2022-12-04T15:28:33.491Z,40.13
2022-12-04T15:31:22.537Z,40.83
2022-12-04T15:34:15.435Z,36.90
2022-12-04T15:37:03.600Z,37.70
2022-12-04T15:39:52.683Z,38.33
2022-12-04T15:42:35.511Z,37.53
2022-12-04T15:45:25.504Z,38.80
2022-12-04T15:48:05.577Z,35.40
2022-12-04T15:51:04.498Z,37.23
2022-12-04T15:53:46.512Z,40.17
2022-12-04T15:56:34.502Z,37.63
2022-12-04T15:59:24.573Z,39.60
2022-12-04T16:02:35.558Z,44.13
2022-12-04T16:05:36.477Z,33.40
2022-12-04T16:08:35.514Z,47.73
2022-12-04T16:11:24.876Z,45.13
2022-12-04T16:14:38.519Z,42.10
2022-12-04T16:17:19.160Z,39.03
2022-12-04T16:20:05.711Z,42.43
2022-12-04T16:22:57.569Z,39.93
2022-12-04T16:25:38.551Z,36.57
2022-12-04T16:28:25.620Z,43.80
2022-12-04T16:31:05.590Z,40.43
2022-12-04T16:33:52.554Z,38.90
2022-12-04T16:36:32.551Z,46.07
2022-12-04T16:39:19.575Z,38.43
2022-12-04T16:41:59.556Z,43.33
2022-12-04T16:44:46.646Z,43.77
2022-12-04T16:47:26.595Z,41.00
2022-12-04T16:50:08.362Z,54.43
2022-12-04T16:52:55.568Z,48.67
2022-12-04T16:55:45.699Z,34.27
2022-12-04T16:58:27.557Z,37.73
2022-12-04T17:01:32.623Z,34.77
2022-12-04T17:04:19.660Z,39.47
2022-12-04T17:07:00.200Z,40.07
2022-12-04T17:09:46.598Z,36.90
2022-12-04T17:12:33.609Z,31.70
2022-12-04T17:15:15.614Z,35.07
2022-12-04T17:18:06.016Z,34.87
2022-12-04T17:20:51.611Z,39.57
2022-12-04T17:23:38.653Z,36.53
2022-12-04T17:26:21.637Z,36.77
2022-12-04T17:29:08.650Z,40.43
2022-12-04T17:31:48.682Z,43.67
2022-12-04T17:34:35.634Z,37.00
2022-12-04T17:37:15.630Z,48.07
2022-12-04T17:40:02.623Z,57.10
2022-12-04T17:42:43.651Z,52.33
2022-12-04T17:45:30.603Z,50.57
2022-12-04T17:48:17.642Z,34.57
2022-12-04T17:51:21.701Z,47.37
2022-12-04T17:54:01.638Z,43.77
2022-12-04T17:56:52.270Z,39.13
2022-12-04T17:59:35.651Z,42.57
2022-12-04T18:02:22.706Z,35.30
2022-12-04T18:05:09.680Z,38.43
2022-12-04T18:07:56.745Z,32.63
2022-12-04T18:10:36.641Z,42.17
2022-12-04T18:13:23.720Z,34.13
2022-12-04T18:16:20.741Z,34.03
2022-12-04T18:19:02.783Z,41.37
2022-12-04T18:21:49.696Z,34.60
2022-12-04T18:24:36.738Z,41.43
2022-12-04T18:27:16.698Z,34.10
2022-12-04T18:29:57.491Z,40.80
2022-12-04T18:32:44.733Z,34.93
2022-12-04T18:35:31.785Z,34.27
2022-12-04T18:38:11.719Z,31.00
2022-12-04T18:40:58.758Z,31.67
2022-12-04T18:43:43.699Z,29.33
2022-12-04T18:46:32.883Z,31.97
2022-12-04T18:49:13.689Z,39.57
2022-12-04T18:52:00.795Z,33.53
2022-12-04T18:54:40.695Z,41.73
2022-12-04T18:57:27.748Z,33.17
2022-12-04T19:00:07.958Z,40.63
2022-12-04T19:02:54.759Z,40.63
2022-12-04T19:05:34.766Z,29.43
2022-12-04T19:08:21.732Z,31.27
2022-12-04T19:11:03.755Z,27.47
2022-12-04T19:13:50.750Z,36.40
2022-12-04T19:16:37.901Z,28.30
2022-12-04T19:19:21.755Z,31.00
2022-12-04T19:22:15.749Z,36.63
2022-12-04T19:25:02.785Z,41.10
2022-12-04T19:27:42.740Z,43.40
2022-12-04T19:30:36.778Z,43.00
2022-12-04T19:33:23.802Z,39.57
2022-12-04T19:36:10.929Z,37.23
2022-12-04T19:38:59.797Z,47.10
2022-12-04T19:41:41.323Z,32.17
2022-12-04T19:47:28.826Z,34.90
2022-12-04T19:50:16.789Z,29.60
2022-12-04T19:52:56.860Z,34.23
2022-12-04T19:55:43.812Z,26.97
2022-12-04T19:58:32.802Z,28.53
2022-12-04T20:01:25.839Z,28.43
2022-12-04T20:04:09.122Z,27.43
2022-12-04T20:06:55.787Z,29.33
2022-12-04T20:09:35.840Z,36.50
2022-12-04T20:12:22.800Z,36.93
2022-12-04T20:15:16.819Z,31.73
2022-12-04T20:18:03.838Z,31.30
2022-12-04T20:20:45.750Z,28.43
2022-12-04T20:23:34.817Z,24.43
2022-12-04T20:26:24.838Z,29.43
2022-12-04T20:29:14.946Z,31.87
2022-12-04T20:31:54.828Z,26.60
2022-12-04T20:34:43.028Z,33.47
2022-12-04T20:37:29.858Z,35.80
2022-12-04T20:40:11.028Z,29.83
2022-12-04T20:42:57.836Z,33.03
2022-12-04T20:45:44.908Z,26.40
2022-12-04T20:48:24.867Z,33.63
2022-12-04T20:51:11.885Z,33.03
2022-12-04T20:53:52.849Z,29.73
2022-12-04T20:56:42.896Z,34.57
2022-12-04T20:59:24.894Z,25.90
2022-12-04T21:02:12.006Z,26.20
2022-12-04T21:04:51.855Z,27.23
2022-12-04T21:07:38.922Z,31.37
2022-12-04T21:10:18.933Z,27.90
2022-12-04T21:13:23.857Z,25.87
2022-12-04T21:16:13.944Z,27.43
2022-12-04T21:19:00.941Z,25.53
2022-12-04T21:21:42.932Z,24.83
2022-12-04T21:24:36.236Z,27.73
2022-12-04T21:27:21.197Z,31.70
2022-12-04T21:30:08.903Z,29.13
2022-12-04T21:32:48.983Z,29.47
2022-12-04T21:35:35.921Z,26.40
2022-12-04T21:38:15.954Z,45.60
2022-12-04T21:41:02.928Z,22.63
2022-12-04T21:43:43.967Z,30.43
2022-12-04T21:46:30.981Z,24.43
2022-12-04T21:49:17.924Z,34.97
2022-12-04T21:52:04.925Z,24.23
2022-12-04T21:54:45.065Z,31.23
2022-12-04T21:57:31.929Z,26.90
2022-12-04T22:00:26.939Z,24.00
2022-12-04T22:03:14.001Z,31.07
2022-12-04T22:06:00.949Z,33.90
2022-12-04T22:08:49.049Z,28.47
2022-12-04T22:11:28.927Z,30.60
2022-12-04T22:14:18.089Z,30.83
2022-12-04T22:17:05.949Z,26.70
2022-12-04T22:19:46.188Z,28.17
2022-12-04T22:22:32.965Z,25.10
2022-12-04T22:25:20.962Z,23.20
2022-12-04T22:28:07.973Z,30.93
2022-12-04T22:30:48.056Z,26.17
2022-12-04T22:33:34.968Z,26.20
2022-12-04T22:36:29.010Z,28.13
2022-12-04T22:39:16.020Z,26.37
2022-12-04T22:41:56.009Z,29.47
2022-12-04T22:44:43.091Z,25.77
2022-12-04T22:47:23.003Z,24.07
2022-12-04T22:50:12.251Z,29.57
2022-12-04T22:52:52.031Z,25.83
2022-12-04T22:55:39.060Z,23.47
2022-12-04T22:58:19.028Z,24.60
2022-12-04T23:01:06.300Z,28.60
2022-12-04T23:03:46.002Z,29.17
2022-12-04T23:06:35.013Z,25.47
2022-12-04T23:09:22.096Z,25.37
2022-12-04T23:12:10.021Z,28.77
2022-12-04T23:15:04.016Z,25.53
2022-12-04T23:17:51.055Z,26.73
2022-12-04T23:20:31.092Z,29.23
2022-12-04T23:23:18.020Z,23.47
2022-12-04T23:25:58.119Z,29.03
2022-12-04T23:28:45.047Z,26.80
2022-12-04T23:31:26.184Z,29.37
2022-12-04T23:34:14.061Z,29.30
2022-12-04T23:36:54.072Z,25.10
2022-12-04T23:39:41.049Z,25.90
2022-12-04T23:42:28.068Z,27.53
2022-12-04T23:45:09.264Z,27.33
2022-12-04T23:47:56.103Z,27.77
2022-12-04T23:50:43.141Z,27.47
2022-12-04T23:53:23.076Z,28.30
2022-12-04T23:56:22.142Z,23.47
2022-12-04T23:59:04.114Z,27.60
